sensor_id;sensor_type;location;lat;lon;timestamp;pressure;altitude;pressure_sealevel;temperature;humidity
57442;BME280;43284;47.042;15.498;2023-05-21T00:00:14;97206.97;;;11.75;97.33
57442;BME280;43284;47.042;15.498;2023-05-21T00:02:40;97206.44;;;11.69;96.80
57442;BME280;43284;47.042;15.498;2023-05-21T00:05:06;97208.22;;;11.68;96.96
57442;BME280;43284;47.042;15.498;2023-05-21T00:07:35;97205.75;;;11.65;97.17
57442;BME280;43284;47.042;15.498;2023-05-21T00:10:01;97204.22;;;11.61;97.14
57442;BME280;43284;47.042;15.498;2023-05-21T00:12:27;97198.47;;;11.54;97.39
57442;BME280;43284;47.042;15.498;2023-05-21T00:14:52;97204.63;;;11.53;97.43
57442;BME280;43284;47.042;15.498;2023-05-21T00:17:17;97202.94;;;11.52;98.12
57442;BME280;43284;47.042;15.498;2023-05-21T00:19:43;97203.72;;;11.54;99.10
57442;BME280;43284;47.042;15.498;2023-05-21T00:22:09;97197.53;;;11.55;99.34
57442;BME280;43284;47.042;15.498;2023-05-21T00:24:34;97200.06;;;11.57;99.03
57442;BME280;43284;47.042;15.498;2023-05-21T00:27:00;97196.53;;;11.58;97.25
57442;BME280;43284;47.042;15.498;2023-05-21T00:29:25;97195.75;;;11.56;97.51
57442;BME280;43284;47.042;15.498;2023-05-21T00:31:52;97196.16;;;11.48;97.98
57442;BME280;43284;47.042;15.498;2023-05-21T00:34:17;97183.38;;;11.42;98.00
57442;BME280;43284;47.042;15.498;2023-05-21T00:36:44;97186.91;;;11.41;98.47
57442;BME280;43284;47.042;15.498;2023-05-21T00:39:11;97189.47;;;11.43;98.87
57442;BME280;43284;47.042;15.498;2023-05-21T00:41:37;97187.63;;;11.45;99.38
57442;BME280;43284;47.042;15.498;2023-05-21T00:44:05;97193.53;;;11.48;99.65
57442;BME280;43284;47.042;15.498;2023-05-21T00:46:31;97181.22;;;11.50;100.00
57442;BME280;43284;47.042;15.498;2023-05-21T00:48:56;97182.00;;;11.52;100.00
57442;BME280;43284;47.042;15.498;2023-05-21T00:51:23;97175.13;;;11.50;100.00
57442;BME280;43284;47.042;15.498;2023-05-21T00:53:50;97175.38;;;11.45;100.00
57442;BME280;43284;47.042;15.498;2023-05-21T00:56:19;97180.59;;;11.45;100.00
57442;BME280;43284;47.042;15.498;2023-05-21T00:58:46;97182.31;;;11.46;100.00
57442;BME280;43284;47.042;15.498;2023-05-21T01:01:12;97185.59;;;11.50;100.00
57442;BME280;43284;47.042;15.498;2023-05-21T01:03:38;97180.34;;;11.50;100.00
57442;BME280;43284;47.042;15.498;2023-05-21T01:06:05;97181.06;;;11.53;100.00
57442;BME280;43284;47.042;15.498;2023-05-21T01:08:31;97174.91;;;11.54;100.00
57442;BME280;43284;47.042;15.498;2023-05-21T01:11:00;97176.59;;;11.55;100.00
57442;BME280;43284;47.042;15.498;2023-05-21T01:13:26;97167.91;;;11.55;100.00
57442;BME280;43284;47.042;15.498;2023-05-21T01:15:52;97167.44;;;11.47;100.00
57442;BME280;43284;47.042;15.498;2023-05-21T01:18:19;97173.63;;;11.46;100.00
57442;BME280;43284;47.042;15.498;2023-05-21T01:20:45;97170.81;;;11.49;100.00
57442;BME280;43284;47.042;15.498;2023-05-21T01:23:18;97166.44;;;11.49;100.00
57442;BME280;43284;47.042;15.498;2023-05-21T01:25:44;97168.03;;;11.52;100.00
57442;BME280;43284;47.042;15.498;2023-05-21T01:28:11;97164.44;;;11.54;100.00
57442;BME280;43284;47.042;15.498;2023-05-21T01:30:37;97165.16;;;11.57;100.00
57442;BME280;43284;47.042;15.498;2023-05-21T01:33:10;97161.81;;;11.54;100.00
57442;BME280;43284;47.042;15.498;2023-05-21T01:38:41;97157.38;;;11.39;100.00
57442;BME280;43284;47.042;15.498;2023-05-21T01:41:10;97164.22;;;11.42;100.00
57442;BME280;43284;47.042;15.498;2023-05-21T01:43:38;97154.59;;;11.42;100.00
57442;BME280;43284;47.042;15.498;2023-05-21T01:46:04;97159.06;;;11.40;100.00
57442;BME280;43284;47.042;15.498;2023-05-21T01:48:31;97153.81;;;11.40;100.00
57442;BME280;43284;47.042;15.498;2023-05-21T01:50:59;97151.97;;;11.42;100.00
57442;BME280;43284;47.042;15.498;2023-05-21T01:53:26;97148.34;;;11.45;100.00
57442;BME280;43284;47.042;15.498;2023-05-21T01:55:51;97150.13;;;11.44;100.00
57442;BME280;43284;47.042;15.498;2023-05-21T01:58:19;97150.97;;;11.45;100.00
57442;BME280;43284;47.042;15.498;2023-05-21T02:00:45;97140.50;;;11.45;100.00
57442;BME280;43284;47.042;15.498;2023-05-21T02:03:12;97144.97;;;11.43;100.00
57442;BME280;43284;47.042;15.498;2023-05-21T02:05:39;97141.88;;;11.34;100.00
57442;BME280;43284;47.042;15.498;2023-05-21T02:08:05;97137.84;;;11.29;100.00
57442;BME280;43284;47.042;15.498;2023-05-21T02:10:33;97142.91;;;11.32;100.00
57442;BME280;43284;47.042;15.498;2023-05-21T02:12:58;97145.22;;;11.38;100.00
57442;BME280;43284;47.042;15.498;2023-05-21T02:15:24;97143.53;;;11.37;100.00
57442;BME280;43284;47.042;15.498;2023-05-21T02:17:49;97152.28;;;11.36;100.00
57442;BME280;43284;47.042;15.498;2023-05-21T02:20:15;97149.69;;;11.36;100.00
57442;BME280;43284;47.042;15.498;2023-05-21T02:22:43;97153.13;;;11.37;100.00
57442;BME280;43284;47.042;15.498;2023-05-21T02:25:10;97155.31;;;11.28;100.00
57442;BME280;43284;47.042;15.498;2023-05-21T02:27:36;97154.84;;;11.20;100.00
57442;BME280;43284;47.042;15.498;2023-05-21T02:30:03;97150.16;;;11.09;100.00
57442;BME280;43284;47.042;15.498;2023-05-21T02:32:30;97148.56;;;11.07;100.00
57442;BME280;43284;47.042;15.498;2023-05-21T02:35:00;97152.19;;;11.04;100.00
57442;BME280;43284;47.042;15.498;2023-05-21T02:37:26;97148.81;;;11.02;100.00
57442;BME280;43284;47.042;15.498;2023-05-21T02:39:55;97152.63;;;10.95;100.00
57442;BME280;43284;47.042;15.498;2023-05-21T02:42:21;97147.25;;;10.98;100.00
57442;BME280;43284;47.042;15.498;2023-05-21T02:44:50;97146.41;;;10.98;100.00
57442;BME280;43284;47.042;15.498;2023-05-21T02:47:18;97142.88;;;10.99;100.00
57442;BME280;43284;47.042;15.498;2023-05-21T02:49:43;97146.31;;;10.99;100.00
57442;BME280;43284;47.042;15.498;2023-05-21T02:52:09;97136.69;;;11.00;100.00
57442;BME280;43284;47.042;15.498;2023-05-21T02:54:34;97133.41;;;10.96;100.00
57442;BME280;43284;47.042;15.498;2023-05-21T02:57:00;97131.81;;;10.93;100.00
57442;BME280;43284;47.042;15.498;2023-05-21T02:59:26;97135.25;;;10.94;100.00
57442;BME280;43284;47.042;15.498;2023-05-21T03:01:51;97135.56;;;10.88;100.00
57442;BME280;43284;47.042;15.498;2023-05-21T03:04:17;97128.66;;;10.87;100.00
57442;BME280;43284;47.042;15.498;2023-05-21T03:06:42;97128.78;;;10.84;100.00
57442;BME280;43284;47.042;15.498;2023-05-21T03:09:08;97123.84;;;10.78;100.00
57442;BME280;43284;47.042;15.498;2023-05-21T03:11:35;97128.31;;;10.76;100.00
57442;BME280;43284;47.042;15.498;2023-05-21T03:14:01;97120.69;;;10.71;100.00
57442;BME280;43284;47.042;15.498;2023-05-21T03:16:26;97120.09;;;10.66;100.00
57442;BME280;43284;47.042;15.498;2023-05-21T03:18:53;97123.66;;;10.65;100.00
57442;BME280;43284;47.042;15.498;2023-05-21T03:21:18;97133.41;;;10.61;100.00
57442;BME280;43284;47.042;15.498;2023-05-21T03:23:47;97127.34;;;10.61;100.00
57442;BME280;43284;47.042;15.498;2023-05-21T03:26:13;97127.22;;;10.62;100.00
57442;BME280;43284;47.042;15.498;2023-05-21T03:28:38;97121.94;;;10.64;100.00
57442;BME280;43284;47.042;15.498;2023-05-21T03:31:04;97120.94;;;10.66;100.00
57442;BME280;43284;47.042;15.498;2023-05-21T03:33:30;97125.31;;;10.66;100.00
57442;BME280;43284;47.042;15.498;2023-05-21T03:35:55;97122.16;;;10.59;100.00
57442;BME280;43284;47.042;15.498;2023-05-21T03:38:21;97132.69;;;10.58;100.00
57442;BME280;43284;47.042;15.498;2023-05-21T03:40:46;97126.78;;;10.54;100.00
57442;BME280;43284;47.042;15.498;2023-05-21T03:43:11;97124.25;;;10.52;100.00
57442;BME280;43284;47.042;15.498;2023-05-21T03:45:37;97138.97;;;10.54;100.00
57442;BME280;43284;47.042;15.498;2023-05-21T03:48:03;97139.84;;;10.54;100.00
57442;BME280;43284;47.042;15.498;2023-05-21T03:50:28;97145.00;;;10.56;100.00
57442;BME280;43284;47.042;15.498;2023-05-21T03:52:54;97144.91;;;10.57;100.00
57442;BME280;43284;47.042;15.498;2023-05-21T03:55:19;97136.91;;;10.60;100.00
57442;BME280;43284;47.042;15.498;2023-05-21T03:57:45;97145.84;;;10.56;100.00
57442;BME280;43284;47.042;15.498;2023-05-21T04:00:10;97151.16;;;10.55;100.00
57442;BME280;43284;47.042;15.498;2023-05-21T04:02:36;97151.94;;;10.57;100.00
57442;BME280;43284;47.042;15.498;2023-05-21T04:05:02;97160.44;;;10.60;100.00
57442;BME280;43284;47.042;15.498;2023-05-21T04:07:27;97162.09;;;10.63;100.00
57442;BME280;43284;47.042;15.498;2023-05-21T04:09:54;97155.84;;;10.65;100.00
57442;BME280;43284;47.042;15.498;2023-05-21T04:12:20;97152.19;;;10.69;100.00
57442;BME280;43284;47.042;15.498;2023-05-21T04:14:46;97154.63;;;10.72;100.00
57442;BME280;43284;47.042;15.498;2023-05-21T04:17:12;97157.06;;;10.76;100.00
57442;BME280;43284;47.042;15.498;2023-05-21T04:19:37;97168.25;;;10.79;100.00
57442;BME280;43284;47.042;15.498;2023-05-21T04:22:04;97176.09;;;10.79;100.00
57442;BME280;43284;47.042;15.498;2023-05-21T04:24:29;97178.56;;;10.82;100.00
57442;BME280;43284;47.042;15.498;2023-05-21T04:26:55;97183.47;;;10.88;100.00
57442;BME280;43284;47.042;15.498;2023-05-21T04:29:26;97182.25;;;10.96;100.00
57442;BME280;43284;47.042;15.498;2023-05-21T04:31:51;97175.72;;;11.04;100.00
57442;BME280;43284;47.042;15.498;2023-05-21T04:34:17;97175.31;;;11.12;100.00
57442;BME280;43284;47.042;15.498;2023-05-21T04:36:43;97179.31;;;11.19;100.00
57442;BME280;43284;47.042;15.498;2023-05-21T04:39:10;97178.94;;;11.27;100.00
57442;BME280;43284;47.042;15.498;2023-05-21T04:41:37;97189.09;;;11.33;100.00
57442;BME280;43284;47.042;15.498;2023-05-21T04:44:05;97183.56;;;11.39;100.00
57442;BME280;43284;47.042;15.498;2023-05-21T04:46:30;97187.38;;;11.49;100.00
57442;BME280;43284;47.042;15.498;2023-05-21T04:48:56;97188.72;;;11.57;100.00
57442;BME280;43284;47.042;15.498;2023-05-21T04:51:22;97187.66;;;11.61;100.00
57442;BME280;43284;47.042;15.498;2023-05-21T04:53:51;97187.25;;;11.68;100.00
57442;BME280;43284;47.042;15.498;2023-05-21T04:56:18;97184.22;;;11.76;100.00
57442;BME280;43284;47.042;15.498;2023-05-21T04:58:44;97187.47;;;11.81;100.00
57442;BME280;43284;47.042;15.498;2023-05-21T05:01:10;97188.91;;;11.87;100.00
57442;BME280;43284;47.042;15.498;2023-05-21T05:03:37;97187.78;;;11.92;100.00
57442;BME280;43284;47.042;15.498;2023-05-21T05:06:03;97201.31;;;12.01;100.00
57442;BME280;43284;47.042;15.498;2023-05-21T05:08:28;97206.06;;;12.10;100.00
57442;BME280;43284;47.042;15.498;2023-05-21T05:10:54;97200.31;;;12.19;100.00
57442;BME280;43284;47.042;15.498;2023-05-21T05:13:20;97202.59;;;12.25;100.00
57442;BME280;43284;47.042;15.498;2023-05-21T05:15:45;97204.88;;;12.31;100.00
57442;BME280;43284;47.042;15.498;2023-05-21T05:18:11;97208.78;;;12.40;100.00
57442;BME280;43284;47.042;15.498;2023-05-21T05:20:37;97208.25;;;12.49;100.00
57442;BME280;43284;47.042;15.498;2023-05-21T05:23:02;97204.22;;;12.60;100.00
57442;BME280;43284;47.042;15.498;2023-05-21T05:25:28;97207.22;;;12.68;100.00
57442;BME280;43284;47.042;15.498;2023-05-21T05:27:53;97204.19;;;12.75;100.00
57442;BME280;43284;47.042;15.498;2023-05-21T05:30:19;97210.75;;;12.83;100.00
57442;BME280;43284;47.042;15.498;2023-05-21T05:32:44;97209.47;;;12.90;100.00
57442;BME280;43284;47.042;15.498;2023-05-21T05:35:11;97208.22;;;12.97;100.00
57442;BME280;43284;47.042;15.498;2023-05-21T05:37:37;97210.47;;;13.03;100.00
57442;BME280;43284;47.042;15.498;2023-05-21T05:40:03;97210.03;;;13.11;100.00
57442;BME280;43284;47.042;15.498;2023-05-21T05:42:29;97208.66;;;13.19;100.00
57442;BME280;43284;47.042;15.498;2023-05-21T05:44:55;97209.84;;;13.30;100.00
57442;BME280;43284;47.042;15.498;2023-05-21T05:47:21;97209.22;;;13.41;100.00
57442;BME280;43284;47.042;15.498;2023-05-21T05:49:46;97215.31;;;13.55;100.00
57442;BME280;43284;47.042;15.498;2023-05-21T05:52:12;97211.31;;;13.78;100.00
57442;BME280;43284;47.042;15.498;2023-05-21T05:54:37;97214.97;;;13.90;100.00
57442;BME280;43284;47.042;15.498;2023-05-21T05:57:03;97211.13;;;13.96;100.00
57442;BME280;43284;47.042;15.498;2023-05-21T05:59:28;97213.19;;;14.05;100.00
57442;BME280;43284;47.042;15.498;2023-05-21T06:01:54;97216.72;;;14.18;100.00
57442;BME280;43284;47.042;15.498;2023-05-21T06:04:19;97215.22;;;14.29;100.00
57442;BME280;43284;47.042;15.498;2023-05-21T06:06:45;97210.34;;;14.37;100.00
57442;BME280;43284;47.042;15.498;2023-05-21T06:09:11;97208.91;;;14.46;99.80
57442;BME280;43284;47.042;15.498;2023-05-21T06:11:37;97213.66;;;14.53;99.44
57442;BME280;43284;47.042;15.498;2023-05-21T06:14:03;97212.72;;;14.69;96.58
57442;BME280;43284;47.042;15.498;2023-05-21T06:16:28;97204.03;;;14.81;95.22
57442;BME280;43284;47.042;15.498;2023-05-21T06:18:57;97201.16;;;14.98;93.49
57442;BME280;43284;47.042;15.498;2023-05-21T06:21:23;97205.91;;;15.06;92.80
57442;BME280;43284;47.042;15.498;2023-05-21T06:23:49;97201.94;;;15.13;92.31
57442;BME280;43284;47.042;15.498;2023-05-21T06:26:14;97205.75;;;15.22;89.37
57442;BME280;43284;47.042;15.498;2023-05-21T06:28:40;97203.09;;;15.35;90.05
57442;BME280;43284;47.042;15.498;2023-05-21T06:31:05;97195.66;;;15.41;88.98
57442;BME280;43284;47.042;15.498;2023-05-21T06:33:31;97197.78;;;15.49;88.68
57442;BME280;43284;47.042;15.498;2023-05-21T06:35:57;97196.97;;;15.74;84.19
57442;BME280;43284;47.042;15.498;2023-05-21T06:38:22;97194.75;;;15.81;83.76
57442;BME280;43284;47.042;15.498;2023-05-21T06:40:48;97199.50;;;15.89;83.90
57442;BME280;43284;47.042;15.498;2023-05-21T06:43:14;97190.84;;;15.99;84.00
57442;BME280;43284;47.042;15.498;2023-05-21T06:45:40;97189.53;;;16.18;82.09
57442;BME280;43284;47.042;15.498;2023-05-21T06:48:05;97195.84;;;16.28;79.97
57442;BME280;43284;47.042;15.498;2023-05-21T06:50:31;97203.09;;;16.37;81.13
57442;BME280;43284;47.042;15.498;2023-05-21T06:52:56;97195.25;;;16.48;80.58
57442;BME280;43284;47.042;15.498;2023-05-21T06:55:22;97191.84;;;16.59;79.23
57442;BME280;43284;47.042;15.498;2023-05-21T06:57:47;97197.41;;;16.67;80.10
57442;BME280;43284;47.042;15.498;2023-05-21T07:00:13;97194.75;;;16.80;78.92
57442;BME280;43284;47.042;15.498;2023-05-21T07:02:39;97202.63;;;16.93;78.62
57442;BME280;43284;47.042;15.498;2023-05-21T07:05:04;97202.22;;;17.11;77.88
57442;BME280;43284;47.042;15.498;2023-05-21T07:07:30;97191.59;;;17.23;77.23
57442;BME280;43284;47.042;15.498;2023-05-21T07:09:55;97201.34;;;17.34;76.95
57442;BME280;43284;47.042;15.498;2023-05-21T07:12:21;97195.25;;;17.45;76.14
57442;BME280;43284;47.042;15.498;2023-05-21T07:14:46;97201.53;;;17.66;74.62
57442;BME280;43284;47.042;15.498;2023-05-21T07:17:12;97197.94;;;17.79;75.59
57442;BME280;43284;47.042;15.498;2023-05-21T07:19:37;97186.81;;;17.86;76.02
57442;BME280;43284;47.042;15.498;2023-05-21T07:22:04;97185.94;;;17.97;75.17
57442;BME280;43284;47.042;15.498;2023-05-21T07:24:30;97186.56;;;18.01;71.45
57442;BME280;43284;47.042;15.498;2023-05-21T07:26:55;97190.66;;;18.16;72.05
57442;BME280;43284;47.042;15.498;2023-05-21T07:29:21;97180.66;;;18.31;73.60
57442;BME280;43284;47.042;15.498;2023-05-21T07:31:46;97179.34;;;18.37;72.19
57442;BME280;43284;47.042;15.498;2023-05-21T07:34:12;97184.72;;;18.46;73.03
57442;BME280;43284;47.042;15.498;2023-05-21T07:36:37;97178.22;;;18.50;71.54
57442;BME280;43284;47.042;15.498;2023-05-21T07:39:03;97177.94;;;18.76;69.29
57442;BME280;43284;47.042;15.498;2023-05-21T07:41:29;97183.00;;;18.79;69.34
57442;BME280;43284;47.042;15.498;2023-05-21T07:43:54;97175.06;;;18.79;71.28
57442;BME280;43284;47.042;15.498;2023-05-21T07:46:20;97175.63;;;18.71;67.55
57442;BME280;43284;47.042;15.498;2023-05-21T07:48:46;97176.13;;;18.77;67.35
57442;BME280;43284;47.042;15.498;2023-05-21T07:51:13;97181.34;;;18.99;65.69
57442;BME280;43284;47.042;15.498;2023-05-21T07:53:38;97178.97;;;18.96;66.13
57442;BME280;43284;47.042;15.498;2023-05-21T07:56:04;97181.63;;;18.96;67.31
57442;BME280;43284;47.042;15.498;2023-05-21T07:58:30;97174.00;;;19.03;68.19
57442;BME280;43284;47.042;15.498;2023-05-21T08:00:55;97177.94;;;19.08;67.24
57442;BME280;43284;47.042;15.498;2023-05-21T08:03:21;97176.34;;;19.17;69.05
57442;BME280;43284;47.042;15.498;2023-05-21T08:05:47;97186.69;;;19.20;67.25
57442;BME280;43284;47.042;15.498;2023-05-21T08:08:17;97172.41;;;19.32;64.58
57442;BME280;43284;47.042;15.498;2023-05-21T08:10:43;97175.06;;;19.32;67.13
57442;BME280;43284;47.042;15.498;2023-05-21T08:13:10;97184.69;;;19.33;65.53
57442;BME280;43284;47.042;15.498;2023-05-21T08:15:36;97181.28;;;19.43;65.99
57442;BME280;43284;47.042;15.498;2023-05-21T08:18:01;97181.53;;;19.61;61.25
57442;BME280;43284;47.042;15.498;2023-05-21T08:20:27;97180.41;;;19.63;63.40
57442;BME280;43284;47.042;15.498;2023-05-21T08:22:55;97173.66;;;19.70;62.17
57442;BME280;43284;47.042;15.498;2023-05-21T08:25:20;97170.94;;;19.82;61.96
57442;BME280;43284;47.042;15.498;2023-05-21T08:27:46;97173.78;;;19.90;61.69
57442;BME280;43284;47.042;15.498;2023-05-21T08:30:11;97169.84;;;19.94;60.42
57442;BME280;43284;47.042;15.498;2023-05-21T08:32:37;97168.38;;;20.01;60.30
57442;BME280;43284;47.042;15.498;2023-05-21T08:35:03;97175.34;;;20.02;62.01
57442;BME280;43284;47.042;15.498;2023-05-21T08:37:28;97173.69;;;20.01;58.69
57442;BME280;43284;47.042;15.498;2023-05-21T08:39:54;97175.75;;;19.98;55.19
57442;BME280;43284;47.042;15.498;2023-05-21T08:42:38;97178.31;;;20.09;56.82
57442;BME280;43284;47.042;15.498;2023-05-21T08:45:05;97170.81;;;20.14;60.19
57442;BME280;43284;47.042;15.498;2023-05-21T08:47:34;97178.06;;;20.22;60.80
57442;BME280;43284;47.042;15.498;2023-05-21T08:50:02;97175.69;;;20.19;58.36
57442;BME280;43284;47.042;15.498;2023-05-21T08:52:30;97170.00;;;20.23;58.83
57442;BME280;43284;47.042;15.498;2023-05-21T08:54:56;97174.00;;;20.17;55.85
57442;BME280;43284;47.042;15.498;2023-05-21T08:57:24;97179.13;;;20.40;55.81
57442;BME280;43284;47.042;15.498;2023-05-21T08:59:51;97172.00;;;20.50;57.30
57442;BME280;43284;47.042;15.498;2023-05-21T09:02:17;97169.88;;;20.34;54.79
57442;BME280;43284;47.042;15.498;2023-05-21T09:04:44;97171.59;;;20.45;58.30
57442;BME280;43284;47.042;15.498;2023-05-21T09:07:14;97161.59;;;20.58;54.08
57442;BME280;43284;47.042;15.498;2023-05-21T09:09:55;97173.19;;;20.77;59.04
57442;BME280;43284;47.042;15.498;2023-05-21T09:12:24;97171.97;;;20.91;57.00
57442;BME280;43284;47.042;15.498;2023-05-21T09:14:50;97172.41;;;21.15;57.25
57442;BME280;43284;47.042;15.498;2023-05-21T09:17:16;97165.69;;;21.21;54.63
57442;BME280;43284;47.042;15.498;2023-05-21T09:20:23;97161.75;;;21.25;54.04
57442;BME280;43284;47.042;15.498;2023-05-21T09:22:49;97169.03;;;21.43;54.10
57442;BME280;43284;47.042;15.498;2023-05-21T09:25:22;97165.53;;;21.42;53.95
57442;BME280;43284;47.042;15.498;2023-05-21T09:27:48;97167.75;;;21.27;54.17
57442;BME280;43284;47.042;15.498;2023-05-21T09:30:16;97168.06;;;21.24;52.34
57442;BME280;43284;47.042;15.498;2023-05-21T09:32:43;97177.19;;;21.41;56.86
57442;BME280;43284;47.042;15.498;2023-05-21T09:35:13;97172.66;;;21.51;52.50
57442;BME280;43284;47.042;15.498;2023-05-21T09:37:43;97167.78;;;21.47;52.33
57442;BME280;43284;47.042;15.498;2023-05-21T09:40:11;97170.28;;;21.48;53.29
57442;BME280;43284;47.042;15.498;2023-05-21T09:42:41;97175.47;;;21.50;54.08
57442;BME280;43284;47.042;15.498;2023-05-21T09:45:10;97178.28;;;21.48;53.56
57442;BME280;43284;47.042;15.498;2023-05-21T09:47:42;97175.91;;;21.45;53.62
57442;BME280;43284;47.042;15.498;2023-05-21T09:50:18;97167.22;;;21.43;53.30
57442;BME280;43284;47.042;15.498;2023-05-21T09:52:45;97174.47;;;21.31;52.18
57442;BME280;43284;47.042;15.498;2023-05-21T09:55:12;97172.69;;;21.32;52.30
57442;BME280;43284;47.042;15.498;2023-05-21T09:57:44;97162.44;;;21.37;51.13
57442;BME280;43284;47.042;15.498;2023-05-21T10:00:30;97164.84;;;21.30;50.40
57442;BME280;43284;47.042;15.498;2023-05-21T10:02:59;97166.25;;;21.44;52.33
57442;BME280;43284;47.042;15.498;2023-05-21T10:05:27;97166.94;;;21.56;51.67
57442;BME280;43284;47.042;15.498;2023-05-21T10:08:02;97158.88;;;21.85;54.06
57442;BME280;43284;47.042;15.498;2023-05-21T10:10:29;97165.28;;;21.92;55.97
57442;BME280;43284;47.042;15.498;2023-05-21T10:13:00;97161.22;;;21.98;54.13
57442;BME280;43284;47.042;15.498;2023-05-21T10:15:31;97171.28;;;21.94;48.83
57442;BME280;43284;47.042;15.498;2023-05-21T10:18:00;97165.28;;;21.92;49.13
57442;BME280;43284;47.042;15.498;2023-05-21T10:20:50;97165.41;;;21.91;49.66
57442;BME280;43284;47.042;15.498;2023-05-21T10:23:48;97159.06;;;22.01;50.94
57442;BME280;43284;47.042;15.498;2023-05-21T10:26:42;97152.09;;;22.00;47.96
57442;BME280;43284;47.042;15.498;2023-05-21T10:29:13;97156.56;;;22.00;50.46
57442;BME280;43284;47.042;15.498;2023-05-21T10:32:05;97159.38;;;21.98;48.89
57442;BME280;43284;47.042;15.498;2023-05-21T10:50:18;97146.03;;;22.46;48.58
57442;BME280;43284;47.042;15.498;2023-05-21T10:53:27;97134.28;;;22.56;48.53
57442;BME280;43284;47.042;15.498;2023-05-21T11:01:21;97138.09;;;22.72;48.53
57442;BME280;43284;47.042;15.498;2023-05-21T11:03:47;97135.44;;;22.72;47.55
57442;BME280;43284;47.042;15.498;2023-05-21T11:06:22;97137.03;;;22.65;48.13
57442;BME280;43284;47.042;15.498;2023-05-21T11:08:49;97134.47;;;22.55;47.31
57442;BME280;43284;47.042;15.498;2023-05-21T11:14:26;97122.28;;;22.52;48.31
57442;BME280;43284;47.042;15.498;2023-05-21T11:19:18;97131.94;;;22.53;49.97
57442;BME280;43284;47.042;15.498;2023-05-21T11:21:49;97124.19;;;22.60;49.15
57442;BME280;43284;47.042;15.498;2023-05-21T11:24:19;97121.97;;;22.55;46.63
57442;BME280;43284;47.042;15.498;2023-05-21T11:29:14;97115.53;;;22.94;44.32
57442;BME280;43284;47.042;15.498;2023-05-21T11:31:47;97115.44;;;23.03;48.27
57442;BME280;43284;47.042;15.498;2023-05-21T11:34:20;97118.03;;;23.13;47.71
57442;BME280;43284;47.042;15.498;2023-05-21T11:39:45;97116.25;;;23.22;48.07
57442;BME280;43284;47.042;15.498;2023-05-21T11:42:11;97114.81;;;23.28;47.31
57442;BME280;43284;47.042;15.498;2023-05-21T11:44:40;97104.03;;;23.37;49.74
57442;BME280;43284;47.042;15.498;2023-05-21T11:47:07;97109.38;;;23.37;47.47
57442;BME280;43284;47.042;15.498;2023-05-21T11:49:34;97102.38;;;23.36;45.80
57442;BME280;43284;47.042;15.498;2023-05-21T11:52:00;97107.84;;;23.35;44.70
57442;BME280;43284;47.042;15.498;2023-05-21T11:54:27;97108.03;;;23.33;46.33
57442;BME280;43284;47.042;15.498;2023-05-21T11:56:54;97111.53;;;23.34;46.59
57442;BME280;43284;47.042;15.498;2023-05-21T11:59:19;97107.03;;;23.34;46.56
57442;BME280;43284;47.042;15.498;2023-05-21T12:01:45;97106.09;;;23.43;46.33
57442;BME280;43284;47.042;15.498;2023-05-21T12:04:10;97101.63;;;23.52;46.95
57442;BME280;43284;47.042;15.498;2023-05-21T12:06:37;97098.69;;;23.37;45.56
57442;BME280;43284;47.042;15.498;2023-05-21T12:09:10;97101.38;;;23.37;45.87
57442;BME280;43284;47.042;15.498;2023-05-21T12:11:39;97092.03;;;23.33;47.21
57442;BME280;43284;47.042;15.498;2023-05-21T12:14:12;97100.72;;;23.17;48.45
57442;BME280;43284;47.042;15.498;2023-05-21T12:16:38;97101.88;;;23.15;46.74
57442;BME280;43284;47.042;15.498;2023-05-21T12:19:05;97107.31;;;23.05;47.72
57442;BME280;43284;47.042;15.498;2023-05-21T12:21:31;97098.19;;;22.98;46.25
57442;BME280;43284;47.042;15.498;2023-05-21T12:23:58;97103.78;;;23.22;49.44
57442;BME280;43284;47.042;15.498;2023-05-21T12:26:24;97095.06;;;23.38;45.55
57442;BME280;43284;47.042;15.498;2023-05-21T12:28:55;97091.34;;;23.31;42.35
57442;BME280;43284;47.042;15.498;2023-05-21T12:31:22;97084.63;;;23.27;44.46
57442;BME280;43284;47.042;15.498;2023-05-21T12:33:50;97088.69;;;23.31;44.79
57442;BME280;43284;47.042;15.498;2023-05-21T12:36:26;97087.16;;;23.29;46.68
57442;BME280;43284;47.042;15.498;2023-05-21T12:38:52;97086.97;;;23.30;45.63
57442;BME280;43284;47.042;15.498;2023-05-21T12:41:18;97088.81;;;23.30;45.56
57442;BME280;43284;47.042;15.498;2023-05-21T12:43:44;97090.94;;;23.26;45.99
57442;BME280;43284;47.042;15.498;2023-05-21T12:46:11;97077.59;;;23.18;47.07
57442;BME280;43284;47.042;15.498;2023-05-21T12:48:39;97074.25;;;23.24;48.22
57442;BME280;43284;47.042;15.498;2023-05-21T12:51:07;97075.28;;;23.49;47.20
57442;BME280;43284;47.042;15.498;2023-05-21T12:53:36;97078.44;;;23.79;45.18
57442;BME280;43284;47.042;15.498;2023-05-21T12:56:12;97063.06;;;24.07;44.80
57442;BME280;43284;47.042;15.498;2023-05-21T12:58:39;97065.63;;;24.33;43.80
57442;BME280;43284;47.042;15.498;2023-05-21T13:01:08;97056.88;;;24.49;47.77
57442;BME280;43284;47.042;15.498;2023-05-21T13:03:34;97054.06;;;24.67;42.16
57442;BME280;43284;47.042;15.498;2023-05-21T13:06:01;97054.22;;;24.90;41.08
57442;BME280;43284;47.042;15.498;2023-05-21T13:08:26;97045.00;;;25.01;41.14
57442;BME280;43284;47.042;15.498;2023-05-21T13:10:52;97039.00;;;25.07;39.10
57442;BME280;43284;47.042;15.498;2023-05-21T13:13:18;97038.16;;;25.31;39.59
57442;BME280;43284;47.042;15.498;2023-05-21T13:15:43;97035.47;;;25.47;37.20
57442;BME280;43284;47.042;15.498;2023-05-21T13:18:09;97029.53;;;25.60;39.68
57442;BME280;43284;47.042;15.498;2023-05-21T13:20:36;97030.13;;;25.31;39.77